Time;durP1;ratioP1;P1;durP2;ratioP2;P2;SDS_P1;SDS_P2;PMS_P1;PMS_P2;Temp;Humidity;BMP_temperature;BMP_pressure;BME280_temperature;BME280_humidity;BME280_pressure;Samples;Min_cycle;Max_cycle;Signal;HPM_P1;HPM_P2
2023/05/02 00:00:35;;;;;;;10.55;4.97;;;;;;;;;;5135423;27;20042;-75
2023/05/02 00:03:02;;;;;;;10.57;4.50;;;;;;;;;;5153685;27;20046;-73
2023/05/02 00:05:28;;;;;;;15.13;4.90;;;;;;;;;;5135599;27;20387;-73
2023/05/02 00:07:54;;;;;;;11.30;4.05;;;;;;;;;;5153745;27;20098;-71
2023/05/02 00:10:20;;;;;;;8.80;3.80;;;;;;;;;;5154116;27;20038;-75
2023/05/02 00:12:47;;;;;;;11.88;3.70;;;;;;;;;;5153488;27;20034;-76
2023/05/02 00:15:13;;;;;;;13.07;4.05;;;;;;;;;;5125481;28;20042;-75
2023/05/02 00:17:43;;;;;;;12.73;3.30;;;;;;;;;;5130955;27;20123;-76
2023/05/02 00:20:10;;;;;;;9.82;3.30;;;;;;;;;;5135143;27;20043;-75
2023/05/02 00:22:36;;;;;;;9.77;3.80;;;;;;;;;;5153654;27;20074;-73
2023/05/02 00:25:03;;;;;;;9.25;3.30;;;;;;;;;;5128393;28;20069;-71
2023/05/02 00:27:30;;;;;;;14.40;3.60;;;;;;;;;;5127638;27;20043;-76
2023/05/02 00:29:57;;;;;;;10.32;3.60;;;;;;;;;;5136992;27;20042;-76
2023/05/02 00:32:23;;;;;;;10.70;3.95;;;;;;;;;;5157449;27;20038;-76
2023/05/02 00:34:49;;;;;;;8.43;3.33;;;;;;;;;;5138590;27;20050;-78
2023/05/02 00:37:15;;;;;;;12.73;3.60;;;;;;;;;;5122113;27;20107;-76
2023/05/02 00:39:41;;;;;;;11.60;3.53;;;;;;;;;;5157393;27;20525;-75
2023/05/02 00:42:07;;;;;;;10.57;3.60;;;;;;;;;;5121460;27;20042;-75
2023/05/02 00:44:33;;;;;;;10.23;3.70;;;;;;;;;;5157122;27;20045;-71
2023/05/02 00:47:01;;;;;;;13.82;3.60;;;;;;;;;;5137709;27;20071;-72
2023/05/02 00:49:27;;;;;;;8.98;2.95;;;;;;;;;;5157264;27;20510;-73
2023/05/02 00:51:53;;;;;;;7.82;3.03;;;;;;;;;;5157221;27;20035;-71
2023/05/02 00:54:20;;;;;;;10.23;3.53;;;;;;;;;;5157063;27;20045;-71
2023/05/02 00:56:46;;;;;;;9.13;3.53;;;;;;;;;;5118960;27;20031;-72
2023/05/02 00:59:13;;;;;;;9.48;4.03;;;;;;;;;;5131866;27;20047;-71
2023/05/02 01:01:40;;;;;;;10.13;3.88;;;;;;;;;;5131052;27;20034;-71
2023/05/02 01:04:11;;;;;;;13.50;4.00;;;;;;;;;;5142355;27;20103;-76
2023/05/02 01:06:41;;;;;;;10.20;3.75;;;;;;;;;;5143961;27;20413;-71
2023/05/02 01:09:16;;;;;;;12.05;3.65;;;;;;;;;;5141340;27;20037;-71
2023/05/02 01:11:53;;;;;;;8.43;3.80;;;;;;;;;;5157173;27;20038;-72
2023/05/02 01:14:20;;;;;;;9.80;3.80;;;;;;;;;;5123654;27;20118;-75
2023/05/02 01:16:48;;;;;;;13.68;4.45;;;;;;;;;;5157165;27;20027;-75
2023/05/02 01:19:22;;;;;;;9.23;3.65;;;;;;;;;;5138053;27;20391;-76
2023/05/02 01:21:48;;;;;;;9.38;3.97;;;;;;;;;;5138411;27;20054;-71
2023/05/02 01:24:22;;;;;;;7.53;2.90;;;;;;;;;;5156582;27;20050;-71
2023/05/02 01:26:51;;;;;;;8.00;3.05;;;;;;;;;;5156949;27;20075;-71
2023/05/02 01:29:19;;;;;;;7.38;2.53;;;;;;;;;;5142125;27;20518;-71
2023/05/02 01:31:47;;;;;;;7.82;2.67;;;;;;;;;;5120702;27;20563;-71
2023/05/02 01:34:13;;;;;;;7.25;2.65;;;;;;;;;;5148409;27;20464;-71
2023/05/02 01:36:44;;;;;;;12.60;2.90;;;;;;;;;;5156571;27;20061;-76
2023/05/02 01:39:13;;;;;;;7.13;2.60;;;;;;;;;;5137240;27;20047;-76
2023/05/02 01:41:40;;;;;;;6.60;2.60;;;;;;;;;;5133170;27;20403;-75
2023/05/02 01:44:07;;;;;;;13.77;2.60;;;;;;;;;;5156159;27;20498;-74
2023/05/02 01:46:35;;;;;;;11.02;2.60;;;;;;;;;;5141469;27;20118;-75
2023/05/02 01:49:06;;;;;;;5.15;2.30;;;;;;;;;;5124066;27;20038;-74
2023/05/02 01:51:33;;;;;;;8.82;2.45;;;;;;;;;;5138175;27;20500;-75
2023/05/02 01:54:00;;;;;;;7.53;2.88;;;;;;;;;;5155834;27;20031;-75
2023/05/02 01:56:29;;;;;;;6.40;2.83;;;;;;;;;;5156055;27;20131;-76
2023/05/02 01:58:55;;;;;;;7.72;2.70;;;;;;;;;;5137832;27;20066;-71
2023/05/02 02:01:26;;;;;;;8.95;3.20;;;;;;;;;;5153725;27;20095;-71
2023/05/02 02:03:53;;;;;;;11.43;3.40;;;;;;;;;;5123380;27;20043;-72
2023/05/02 02:06:20;;;;;;;16.17;3.53;;;;;;;;;;5127889;27;20043;-71
2023/05/02 02:08:47;;;;;;;15.25;3.72;;;;;;;;;;5137412;27;20035;-71
2023/05/02 02:11:16;;;;;;;17.17;3.92;;;;;;;;;;5137457;27;20051;-72
2023/05/02 02:13:49;;;;;;;12.80;4.40;;;;;;;;;;5137496;27;20538;-71
2023/05/02 02:16:21;;;;;;;13.40;4.22;;;;;;;;;;5131145;27;20035;-71
2023/05/02 02:18:47;;;;;;;11.60;3.47;;;;;;;;;;5120226;27;20483;-71
2023/05/02 02:21:16;;;;;;;17.92;4.50;;;;;;;;;;5155187;27;20038;-71
2023/05/02 02:23:42;;;;;;;18.90;3.60;;;;;;;;;;5136775;27;20038;-72
2023/05/02 02:26:09;;;;;;;14.82;3.67;;;;;;;;;;5155420;27;20483;-78
2023/05/02 02:28:35;;;;;;;13.88;3.40;;;;;;;;;;5137011;27;20043;-76
2023/05/02 02:31:01;;;;;;;13.93;3.60;;;;;;;;;;5136818;27;20052;-76
2023/05/02 02:33:30;;;;;;;21.35;4.20;;;;;;;;;;5136205;27;20058;-75
2023/05/02 02:36:22;;;;;;;17.05;3.50;;;;;;;;;;5131511;27;20046;-76
2023/05/02 02:39:00;;;;;;;22.08;4.47;;;;;;;;;;5132379;27;20078;-75
2023/05/02 02:41:44;;;;;;;16.00;3.70;;;;;;;;;;5136638;27;20121;-76
2023/05/02 02:44:32;;;;;;;14.05;3.30;;;;;;;;;;5155226;27;20171;-75
2023/05/02 02:47:07;;;;;;;18.40;3.95;;;;;;;;;;5104372;27;20507;-76
2023/05/02 02:49:33;;;;;;;;;;;;;;;;;;5116143;27;20051;-76
2023/05/02 02:52:06;;;;;;;14.55;4.47;;;;;;;;;;5148494;27;20290;-75
2023/05/02 02:54:35;;;;;;;14.88;3.78;;;;;;;;;;5154390;27;20175;-71
2023/05/02 02:57:03;;;;;;;15.63;3.60;;;;;;;;;;5141011;27;20026;-70
2023/05/02 02:59:31;;;;;;;15.10;4.15;;;;;;;;;;5154639;27;20082;-71
2023/05/02 03:02:08;;;;;;;19.17;3.92;;;;;;;;;;5136057;27;20031;-71
2023/05/02 03:04:35;;;;;;;18.65;4.38;;;;;;;;;;5142977;27;20047;-70
2023/05/02 03:07:01;;;;;;;23.95;5.00;;;;;;;;;;5133504;27;20070;-71
2023/05/02 03:09:32;;;;;;;22.52;3.90;;;;;;;;;;5154398;27;20078;-72
2023/05/02 03:11:58;;;;;;;19.67;4.47;;;;;;;;;;5140225;27;20043;-71
2023/05/02 03:14:24;;;;;;;15.55;4.07;;;;;;;;;;5136068;27;20034;-72
2023/05/02 03:16:50;;;;;;;21.73;4.18;;;;;;;;;;5141305;27;20041;-72
2023/05/02 03:19:16;;;;;;;23.65;4.82;;;;;;;;;;5148023;27;20035;-72
2023/05/02 03:21:42;;;;;;;21.40;4.32;;;;;;;;;;5126804;27;20095;-72
2023/05/02 03:24:08;;;;;;;22.70;4.63;;;;;;;;;;5154769;27;20074;-72
2023/05/02 03:26:35;;;;;;;17.63;4.50;;;;;;;;;;5126531;27;20035;-72
2023/05/02 03:29:01;;;;;;;25.48;4.40;;;;;;;;;;5134670;27;20407;-70
2023/05/02 03:31:27;;;;;;;19.85;4.35;;;;;;;;;;5154469;27;20034;-73
2023/05/02 03:33:53;;;;;;;25.70;5.43;;;;;;;;;;5154151;27;20437;-72
2023/05/02 03:36:19;;;;;;;20.42;4.70;;;;;;;;;;5149139;27;20391;-71
2023/05/02 03:38:45;;;;;;;22.10;5.07;;;;;;;;;;5126961;27;20545;-72
2023/05/02 03:41:11;;;;;;;22.63;4.82;;;;;;;;;;5154309;27;20387;-72
2023/05/02 03:43:37;;;;;;;21.15;4.32;;;;;;;;;;5123821;27;20035;-72
2023/05/02 03:46:06;;;;;;;19.23;4.63;;;;;;;;;;5119302;27;20035;-72
2023/05/02 03:48:33;;;;;;;19.23;3.83;;;;;;;;;;5135691;27;20072;-71
2023/05/02 03:50:59;;;;;;;17.52;4.38;;;;;;;;;;5118326;27;20050;-72
2023/05/02 03:53:25;;;;;;;17.85;4.32;;;;;;;;;;5131860;27;20069;-72
2023/05/02 03:55:52;;;;;;;19.05;4.07;;;;;;;;;;5135612;27;20049;-71
2023/05/02 03:58:18;;;;;;;16.27;3.42;;;;;;;;;;5154056;27;20045;-71
2023/05/02 04:00:44;;;;;;;19.85;3.95;;;;;;;;;;5135404;27;20035;-72
2023/05/02 04:03:10;;;;;;;19.38;4.20;;;;;;;;;;5120498;27;20046;-72
2023/05/02 04:05:36;;;;;;;15.70;3.95;;;;;;;;;;5156954;27;20038;-72
2023/05/02 04:08:02;;;;;;;19.25;3.65;;;;;;;;;;5158173;27;20443;-71
2023/05/02 04:10:28;;;;;;;17.50;3.85;;;;;;;;;;5157770;27;20039;-72
2023/05/02 04:12:54;;;;;;;16.58;3.63;;;;;;;;;;5139867;27;20038;-72
2023/05/02 04:15:20;;;;;;;12.25;2.85;;;;;;;;;;5136410;27;20551;-72
2023/05/02 04:17:47;;;;;;;17.58;4.43;;;;;;;;;;5130101;27;20506;-75
2023/05/02 04:20:14;;;;;;;16.10;3.10;;;;;;;;;;5122063;27;20034;-71
2023/05/02 04:22:40;;;;;;;19.23;3.00;;;;;;;;;;5122339;27;20035;-72
2023/05/02 04:25:06;;;;;;;13.32;3.78;;;;;;;;;;5139664;27;20046;-70
2023/05/02 04:27:32;;;;;;;12.93;3.13;;;;;;;;;;5155925;27;20035;-72
2023/05/02 04:29:58;;;;;;;14.27;4.13;;;;;;;;;;5145902;27;20130;-72
2023/05/02 04:32:25;;;;;;;12.57;2.83;;;;;;;;;;5117816;27;20475;-71
2023/05/02 04:34:51;;;;;;;15.02;3.58;;;;;;;;;;5113168;27;20490;-72
2023/05/02 04:37:18;;;;;;;10.55;2.78;;;;;;;;;;5120441;27;20400;-76
2023/05/02 04:39:44;;;;;;;8.85;2.33;;;;;;;;;;5121883;27;20046;-75
2023/05/02 04:42:10;;;;;;;15.02;2.90;;;;;;;;;;5157876;27;20498;-76
2023/05/02 04:44:36;;;;;;;14.43;2.53;;;;;;;;;;5157922;27;20383;-72
2023/05/02 04:47:03;;;;;;;12.70;3.20;;;;;;;;;;5157873;27;20045;-73
2023/05/02 04:49:29;;;;;;;13.52;2.65;;;;;;;;;;5152813;27;20082;-70
2023/05/02 04:51:55;;;;;;;11.38;2.42;;;;;;;;;;5147480;27;20098;-72
2023/05/02 04:54:21;;;;;;;10.02;2.47;;;;;;;;;;5126269;27;20127;-72
2023/05/02 04:56:48;;;;;;;11.52;2.38;;;;;;;;;;5119634;27;20039;-72
2023/05/02 04:59:14;;;;;;;9.75;2.35;;;;;;;;;;5138881;27;20041;-72
2023/05/02 05:01:40;;;;;;;9.07;2.30;;;;;;;;;;5157021;27;20058;-70
2023/05/02 05:04:06;;;;;;;9.48;2.10;;;;;;;;;;5126307;27;20096;-72
2023/05/02 05:06:32;;;;;;;9.02;2.00;;;;;;;;;;5122425;27;20126;-72
2023/05/02 05:08:58;;;;;;;9.70;1.80;;;;;;;;;;5146238;27;20396;-73
2023/05/02 05:11:25;;;;;;;10.75;2.30;;;;;;;;;;5120592;27;20506;-76
2023/05/02 05:13:51;;;;;;;6.40;1.70;;;;;;;;;;5129880;27;20083;-76
2023/05/02 05:16:17;;;;;;;8.43;1.90;;;;;;;;;;5115070;27;20046;-76
2023/05/02 05:18:43;;;;;;;8.55;1.95;;;;;;;;;;5131290;27;20038;-72
2023/05/02 05:21:10;;;;;;;6.63;1.90;;;;;;;;;;5117614;27;20046;-72
2023/05/02 05:23:36;;;;;;;7.70;1.80;;;;;;;;;;5150544;27;20062;-72
2023/05/02 05:26:15;;;;;;;11.57;1.90;;;;;;;;;;5147443;27;20089;-71
2023/05/02 05:28:42;;;;;;;4.05;1.73;;;;;;;;;;5137918;27;20402;-71
2023/05/02 05:31:09;;;;;;;9.23;2.00;;;;;;;;;;5156819;27;20483;-75
2023/05/02 05:33:36;;;;;;;5.15;2.28;;;;;;;;;;5137592;27;20035;-75
2023/05/02 05:36:05;;;;;;;9.45;2.08;;;;;;;;;;5137751;27;20043;-76
2023/05/02 05:38:31;;;;;;;8.23;1.90;;;;;;;;;;5156125;27;20035;-76
2023/05/02 05:40:57;;;;;;;6.20;1.70;;;;;;;;;;5138039;27;20047;-76
2023/05/02 05:43:25;;;;;;;5.47;1.98;;;;;;;;;;5120867;27;20505;-71
2023/05/02 05:45:52;;;;;;;6.47;1.67;;;;;;;;;;5135455;27;20454;-76
2023/05/02 05:48:18;;;;;;;5.53;1.80;;;;;;;;;;5100414;27;20503;-72
2023/05/02 05:50:44;;;;;;;7.53;1.55;;;;;;;;;;5135666;27;20062;-72
2023/05/02 05:53:10;;;;;;;7.57;1.80;;;;;;;;;;5129593;27;20092;-73
2023/05/02 05:55:37;;;;;;;4.93;1.60;;;;;;;;;;5155821;27;20034;-73
2023/05/02 05:58:04;;;;;;;7.53;1.80;;;;;;;;;;5155910;27;20031;-77
2023/05/02 06:00:31;;;;;;;10.20;1.90;;;;;;;;;;5120116;27;20042;-77
2023/05/02 06:02:57;;;;;;;8.65;1.90;;;;;;;;;;5121451;27;20395;-76
2023/05/02 06:05:23;;;;;;;7.15;1.75;;;;;;;;;;5116886;27;20039;-76
2023/05/02 06:07:49;;;;;;;11.43;2.35;;;;;;;;;;5151230;27;20042;-77
2023/05/02 06:10:15;;;;;;;7.43;1.70;;;;;;;;;;5116553;27;20050;-78
2023/05/02 06:12:41;;;;;;;8.88;2.00;;;;;;;;;;5154070;27;20052;-77
2023/05/02 06:15:07;;;;;;;6.43;2.20;;;;;;;;;;5137256;27;20065;-77
2023/05/02 06:17:33;;;;;;;8.88;2.40;;;;;;;;;;5118532;27;20395;-76
2023/05/02 06:19:59;;;;;;;9.60;1.95;;;;;;;;;;5142689;27;20039;-76
2023/05/02 06:22:26;;;;;;;9.98;2.15;;;;;;;;;;5155337;27;20039;-76
2023/05/02 06:24:52;;;;;;;9.60;2.33;;;;;;;;;;5155508;27;20039;-76
2023/05/02 06:27:18;;;;;;;10.27;1.90;;;;;;;;;;5125744;27;20043;-76
2023/05/02 06:29:44;;;;;;;10.13;2.22;;;;;;;;;;5138923;27;20038;-76
2023/05/02 06:32:10;;;;;;;11.43;2.28;;;;;;;;;;5116744;27;20056;-76
2023/05/02 06:34:37;;;;;;;10.40;2.45;;;;;;;;;;5130822;27;20051;-76
2023/05/02 06:37:03;;;;;;;8.90;2.20;;;;;;;;;;5135244;27;20044;-75
2023/05/02 06:39:29;;;;;;;11.95;2.10;;;;;;;;;;5114318;27;20487;-75
2023/05/02 06:41:59;;;;;;;9.55;2.30;;;;;;;;;;5130360;27;20079;-73
2023/05/02 06:44:25;;;;;;;7.18;1.70;;;;;;;;;;5129789;27;20573;-72
2023/05/02 06:46:51;;;;;;;9.63;1.90;;;;;;;;;;5117318;27;20511;-72
2023/05/02 06:49:17;;;;;;;12.18;2.53;;;;;;;;;;5110040;27;20126;-71
2023/05/02 06:51:43;;;;;;;9.65;2.13;;;;;;;;;;5140038;27;20038;-71
2023/05/02 06:54:10;;;;;;;14.20;2.67;;;;;;;;;;5116286;27;20400;-71
2023/05/02 06:56:36;;;;;;;10.27;2.30;;;;;;;;;;5115767;27;20061;-72
2023/05/02 06:59:02;;;;;;;10.27;2.20;;;;;;;;;;5154952;27;20407;-71
2023/05/02 07:01:28;;;;;;;8.25;1.90;;;;;;;;;;5154792;27;20030;-76
2023/05/02 07:03:54;;;;;;;8.32;1.90;;;;;;;;;;5155571;27;20038;-75
2023/05/02 07:06:20;;;;;;;7.18;2.28;;;;;;;;;;5137002;27;20034;-76
2023/05/02 07:08:46;;;;;;;9.98;2.17;;;;;;;;;;5137123;27;20555;-75
2023/05/02 07:11:12;;;;;;;8.10;2.28;;;;;;;;;;5155882;27;20050;-75
2023/05/02 07:13:38;;;;;;;9.55;2.40;;;;;;;;;;5117392;27;20035;-77
2023/05/02 07:16:05;;;;;;;14.38;2.33;;;;;;;;;;5143402;27;20555;-75
2023/05/02 07:18:31;;;;;;;10.50;2.72;;;;;;;;;;5154515;27;20043;-75
2023/05/02 07:20:57;;;;;;;8.95;2.17;;;;;;;;;;5136671;27;20039;-74
2023/05/02 07:23:24;;;;;;;11.43;2.95;;;;;;;;;;5155262;27;20494;-75
2023/05/02 07:25:50;;;;;;;8.52;2.22;;;;;;;;;;5136891;27;20080;-75
2023/05/02 07:28:16;;;;;;;11.27;2.40;;;;;;;;;;5136936;27;20054;-75
2023/05/02 07:30:42;;;;;;;13.02;2.72;;;;;;;;;;5154957;27;20475;-78
2023/05/02 07:33:08;;;;;;;8.82;2.30;;;;;;;;;;5155217;27;20038;-77
2023/05/02 07:35:34;;;;;;;7.50;2.10;;;;;;;;;;5132624;27;20047;-70
2023/05/02 07:38:00;;;;;;;6.30;2.08;;;;;;;;;;5124718;27;20121;-76
2023/05/02 07:40:27;;;;;;;8.23;2.63;;;;;;;;;;5135380;27;20043;-76
2023/05/02 07:42:53;;;;;;;9.10;2.38;;;;;;;;;;5146078;27;20078;-71
2023/05/02 07:45:20;;;;;;;10.27;2.10;;;;;;;;;;5129551;27;20099;-76
2023/05/02 07:47:46;;;;;;;8.27;2.15;;;;;;;;;;5148123;27;20130;-76
2023/05/02 07:50:12;;;;;;;7.88;2.15;;;;;;;;;;5123494;28;20039;-75
2023/05/02 07:52:38;;;;;;;7.25;2.05;;;;;;;;;;5151684;27;20043;-76
2023/05/02 07:55:04;;;;;;;6.95;2.40;;;;;;;;;;5153780;27;20038;-75
2023/05/02 07:57:30;;;;;;;8.18;3.38;;;;;;;;;;5154753;27;20083;-75
2023/05/02 07:59:57;;;;;;;6.35;2.20;;;;;;;;;;5117381;27;20117;-75
2023/05/02 08:02:23;;;;;;;10.15;2.25;;;;;;;;;;5124439;28;20031;-77
2023/05/02 08:04:49;;;;;;;9.27;2.33;;;;;;;;;;5147468;27;20043;-73
2023/05/02 08:07:16;;;;;;;11.35;2.40;;;;;;;;;;5139464;27;20512;-76
2023/05/02 08:09:42;;;;;;;6.68;2.47;;;;;;;;;;5118360;27;20046;-75
2023/05/02 08:12:08;;;;;;;10.05;2.55;;;;;;;;;;5135230;27;20039;-76
2023/05/02 08:14:34;;;;;;;7.45;2.20;;;;;;;;;;5120927;27;20112;-76
2023/05/02 08:17:00;;;;;;;11.93;2.53;;;;;;;;;;5154400;27;20071;-75
2023/05/02 08:19:26;;;;;;;6.47;2.85;;;;;;;;;;5141064;27;20043;-71
2023/05/02 08:21:55;;;;;;;9.43;2.30;;;;;;;;;;5150726;27;20436;-76
2023/05/02 08:24:21;;;;;;;8.57;2.42;;;;;;;;;;5135390;27;20417;-76
2023/05/02 08:26:48;;;;;;;8.38;2.72;;;;;;;;;;5135391;27;20030;-75
2023/05/02 08:29:14;;;;;;;5.15;2.17;;;;;;;;;;5135088;27;20391;-75
2023/05/02 08:31:40;;;;;;;9.23;2.53;;;;;;;;;;5148763;27;20118;-74
2023/05/02 08:34:06;;;;;;;9.00;2.47;;;;;;;;;;5139741;27;20047;-75
2023/05/02 08:36:32;;;;;;;7.78;2.20;;;;;;;;;;5147658;27;20130;-75
2023/05/02 08:38:58;;;;;;;7.88;2.25;;;;;;;;;;5118209;27;20067;-71
2023/05/02 08:41:25;;;;;;;5.85;2.03;;;;;;;;;;5135724;27;20395;-72
2023/05/02 08:43:52;;;;;;;11.73;2.53;;;;;;;;;;5120863;27;20057;-73
2023/05/02 08:46:18;;;;;;;7.85;2.30;;;;;;;;;;5153472;27;20046;-71
2023/05/02 08:48:48;;;;;;;9.23;2.80;;;;;;;;;;5135140;27;20057;-71
2023/05/02 08:51:15;;;;;;;10.60;2.78;;;;;;;;;;5137651;27;20042;-74
2023/05/02 08:53:42;;;;;;;13.07;3.05;;;;;;;;;;5138799;27;20046;-72
2023/05/02 08:56:08;;;;;;;11.38;2.90;;;;;;;;;;5121891;27;20034;-71
2023/05/02 08:58:35;;;;;;;7.65;2.40;;;;;;;;;;5138683;27;20062;-72
2023/05/02 09:01:03;;;;;;;8.90;2.35;;;;;;;;;;5127846;27;20076;-72
2023/05/02 09:03:33;;;;;;;10.88;2.88;;;;;;;;;;5154662;27;20034;-71
2023/05/02 09:06:07;;;;;;;7.05;2.20;;;;;;;;;;5138466;27;20038;-73
2023/05/02 09:08:33;;;;;;;5.28;2.10;;;;;;;;;;5138490;27;20050;-73
2023/05/02 09:11:00;;;;;;;9.85;2.40;;;;;;;;;;5156645;27;20043;-72
2023/05/02 09:13:34;;;;;;;10.90;2.30;;;;;;;;;;5138646;27;20514;-72
2023/05/02 09:16:04;;;;;;;10.02;2.53;;;;;;;;;;5156772;27;20201;-72
2023/05/02 09:18:35;;;;;;;9.73;2.40;;;;;;;;;;5106033;27;20079;-72
2023/05/02 09:21:05;;;;;;;12.13;2.33;;;;;;;;;;5125689;27;20057;-71
2023/05/02 09:23:40;;;;;;;8.45;2.38;;;;;;;;;;5137927;27;20058;-71
2023/05/02 09:26:11;;;;;;;8.02;2.40;;;;;;;;;;5125600;27;20046;-75
2023/05/02 09:28:39;;;;;;;5.85;1.88;;;;;;;;;;5156521;27;20511;-75
2023/05/02 09:31:09;;;;;;;7.22;2.10;;;;;;;;;;5114363;27;20031;-75
2023/05/02 09:33:35;;;;;;;8.65;2.08;;;;;;;;;;5130956;27;20091;-75
2023/05/02 09:36:02;;;;;;;6.88;2.00;;;;;;;;;;5137604;27;20054;-72
2023/05/02 09:38:29;;;;;;;5.03;1.70;;;;;;;;;;5120990;27;20046;-71
2023/05/02 09:40:55;;;;;;;8.65;1.77;;;;;;;;;;5120548;27;20080;-72
2023/05/02 09:43:21;;;;;;;8.18;2.33;;;;;;;;;;5156031;27;20039;-70
2023/05/02 09:46:07;;;;;;;5.82;1.75;;;;;;;;;;5137859;27;20125;-72
2023/05/02 09:48:33;;;;;;;7.35;1.60;;;;;;;;;;5156462;27;20571;-71
2023/05/02 09:51:00;;;;;;;11.20;2.30;;;;;;;;;;5137712;27;20087;-71
2023/05/02 09:53:27;;;;;;;5.18;1.60;;;;;;;;;;5155961;27;20463;-72
2023/05/02 09:55:59;;;;;;;6.05;1.88;;;;;;;;;;5137716;27;20042;-72
2023/05/02 09:58:29;;;;;;;8.18;1.58;;;;;;;;;;5137360;27;20037;-72
2023/05/02 10:00:56;;;;;;;7.88;1.70;;;;;;;;;;5120450;27;20039;-74
2023/05/02 10:03:22;;;;;;;7.13;1.60;;;;;;;;;;5155100;27;20045;-75
2023/05/02 10:05:49;;;;;;;4.03;1.40;;;;;;;;;;5155945;27;20077;-76
2023/05/02 10:08:18;;;;;;;5.80;1.45;;;;;;;;;;5136918;27;20087;-76
2023/05/02 10:10:50;;;;;;;5.22;1.30;;;;;;;;;;5156209;27;20062;-71
2023/05/02 10:13:19;;;;;;;5.57;1.45;;;;;;;;;;5136864;27;20045;-76
2023/05/02 10:15:48;;;;;;;5.30;1.73;;;;;;;;;;5155907;27;20420;-80
2023/05/02 10:18:17;;;;;;;4.55;1.27;;;;;;;;;;5136766;27;20057;-75
2023/05/02 10:20:48;;;;;;;4.32;1.30;;;;;;;;;;5137134;27;20046;-76
2023/05/02 10:23:15;;;;;;;4.65;1.48;;;;;;;;;;5136976;27;20402;-75
2023/05/02 10:25:42;;;;;;;4.88;1.45;;;;;;;;;;5136930;27;20048;-75
2023/05/02 10:28:09;;;;;;;6.20;1.30;;;;;;;;;;5136775;27;20072;-76
2023/05/02 10:30:35;;;;;;;9.40;1.52;;;;;;;;;;5121959;27;20039;-75
2023/05/02 10:33:02;;;;;;;6.28;1.42;;;;;;;;;;5146349;27;20035;-74
2023/05/02 10:35:30;;;;;;;4.20;1.40;;;;;;;;;;5113630;27;20070;-76
2023/05/02 10:37:56;;;;;;;6.07;1.60;;;;;;;;;;5136854;27;20038;-75
2023/05/02 10:40:22;;;;;;;4.90;1.45;;;;;;;;;;5154810;27;20039;-71
2023/05/02 10:42:51;;;;;;;3.58;1.23;;;;;;;;;;5136641;27;20057;-70
2023/05/02 10:45:29;;;;;;;5.18;1.33;;;;;;;;;;5154916;27;20047;-71
2023/05/02 10:48:15;;;;;;;4.55;1.20;;;;;;;;;;5122204;27;20082;-71
2023/05/02 10:50:42;;;;;;;4.30;1.20;;;;;;;;;;5115764;27;20066;-71
2023/05/02 10:53:24;;;;;;;4.20;1.25;;;;;;;;;;5140503;27;20043;-76
2023/05/02 10:56:24;;;;;;;5.65;1.33;;;;;;;;;;5136464;27;20153;-75
2023/05/02 10:58:53;;;;;;;4.78;1.38;;;;;;;;;;5136472;27;20051;-71
2023/05/02 11:01:26;;;;;;;3.22;1.20;;;;;;;;;;5155167;27;20073;-72
2023/05/02 11:03:56;;;;;;;4.20;1.30;;;;;;;;;;5122779;27;20042;-71
2023/05/02 11:06:22;;;;;;;5.57;1.50;;;;;;;;;;5119395;27;20436;-72
2023/05/02 11:08:48;;;;;;;7.07;1.23;;;;;;;;;;5154805;27;20053;-72
2023/05/02 11:11:33;;;;;;;5.13;1.48;;;;;;;;;;5155062;27;20436;-72
2023/05/02 11:13:59;;;;;;;5.63;1.30;;;;;;;;;;5153497;27;20093;-71
2023/05/02 11:16:25;;;;;;;5.75;1.10;;;;;;;;;;5154572;27;20043;-72
2023/05/02 11:18:59;;;;;;;5.85;1.42;;;;;;;;;;5136041;27;20043;-73
2023/05/02 11:21:31;;;;;;;6.22;1.50;;;;;;;;;;5142663;27;20402;-73
2023/05/02 11:24:16;;;;;;;8.43;1.48;;;;;;;;;;5133821;27;20043;-72
2023/05/02 11:26:42;;;;;;;5.22;1.33;;;;;;;;;;5135914;27;20043;-71
2023/05/02 11:29:08;;;;;;;7.93;1.50;;;;;;;;;;5115090;27;20076;-73
2023/05/02 11:31:53;;;;;;;4.07;1.23;;;;;;;;;;5129442;27;20043;-72
2023/05/02 11:34:19;;;;;;;4.32;1.20;;;;;;;;;;5126611;27;20386;-73
2023/05/02 11:36:45;;;;;;;4.85;1.50;;;;;;;;;;5135507;27;20046;-74
2023/05/02 11:39:18;;;;;;;4.75;1.30;;;;;;;;;;5100911;27;20054;-70
2023/05/02 11:41:47;;;;;;;7.38;1.42;;;;;;;;;;5136044;27;20557;-76
2023/05/02 11:44:13;;;;;;;4.22;1.73;;;;;;;;;;5153894;27;20046;-76
2023/05/02 11:46:40;;;;;;;3.33;1.20;;;;;;;;;;5135749;27;20425;-73
2023/05/02 11:49:12;;;;;;;3.22;1.10;;;;;;;;;;5154115;27;20406;-75
2023/05/02 11:51:38;;;;;;;6.05;1.13;;;;;;;;;;5135424;27;20148;-74
2023/05/02 11:54:06;;;;;;;4.65;1.23;;;;;;;;;;5140578;27;20592;-75
2023/05/02 11:56:32;;;;;;;2.72;1.17;;;;;;;;;;5133308;27;20454;-75
2023/05/02 11:58:59;;;;;;;5.70;1.50;;;;;;;;;;5124187;27;20402;-74
2023/05/02 12:01:26;;;;;;;3.55;1.10;;;;;;;;;;5127521;27;20045;-75
2023/05/02 12:04:01;;;;;;;5.30;1.20;;;;;;;;;;5130289;28;20035;-74
2023/05/02 12:06:27;;;;;;;2.78;1.02;;;;;;;;;;5128127;27;20475;-73
2023/05/02 12:09:05;;;;;;;4.10;1.20;;;;;;;;;;5121315;27;20436;-72
2023/05/02 12:11:31;;;;;;;10.45;1.70;;;;;;;;;;5140707;27;20051;-74
2023/05/02 12:13:57;;;;;;;5.13;1.25;;;;;;;;;;5117006;27;20037;-73
2023/05/02 12:16:23;;;;;;;3.33;1.10;;;;;;;;;;5142757;27;20031;-73
2023/05/02 12:18:50;;;;;;;4.55;1.38;;;;;;;;;;5129158;27;20064;-73
2023/05/02 12:21:16;;;;;;;5.22;1.40;;;;;;;;;;5114780;28;20042;-72
2023/05/02 12:23:43;;;;;;;3.65;1.20;;;;;;;;;;5148054;27;20034;-71
2023/05/02 12:26:36;;;;;;;4.55;1.20;;;;;;;;;;5127901;27;20402;-75
2023/05/02 12:29:02;;;;;;;5.47;1.60;;;;;;;;;;5134081;27;20051;-72
2023/05/02 12:31:30;;;;;;;6.35;1.40;;;;;;;;;;5149240;27;20050;-72
2023/05/02 12:33:58;;;;;;;3.83;1.10;;;;;;;;;;5135005;27;20063;-71
2023/05/02 12:36:24;;;;;;;5.97;1.70;;;;;;;;;;5129114;27;20055;-72
2023/05/02 12:39:08;;;;;;;6.32;1.52;;;;;;;;;;5139142;27;20452;-72
2023/05/02 12:41:36;;;;;;;3.45;1.52;;;;;;;;;;5121644;27;20145;-72
2023/05/02 12:44:02;;;;;;;5.35;1.45;;;;;;;;;;5124912;27;20049;-71
2023/05/02 12:46:28;;;;;;;5.78;1.55;;;;;;;;;;5111972;27;20076;-72
2023/05/02 12:49:01;;;;;;;5.43;1.75;;;;;;;;;;5133996;27;20038;-71
2023/05/02 12:51:27;;;;;;;6.57;1.60;;;;;;;;;;5130117;27;20507;-72
2023/05/02 12:53:53;;;;;;;5.05;1.40;;;;;;;;;;5133389;27;20043;-76
2023/05/02 12:56:20;;;;;;;5.57;1.60;;;;;;;;;;5157174;27;20031;-75
2023/05/02 12:58:47;;;;;;;5.38;1.40;;;;;;;;;;5138835;27;20386;-74
2023/05/02 13:01:14;;;;;;;5.53;1.55;;;;;;;;;;5157203;27;20047;-76
2023/05/02 13:03:40;;;;;;;3.08;1.30;;;;;;;;;;5138224;27;20053;-71
2023/05/02 13:06:06;;;;;;;4.30;1.40;;;;;;;;;;5138797;27;20390;-71
2023/05/02 13:08:33;;;;;;;3.92;1.55;;;;;;;;;;5156822;27;20031;-72
2023/05/02 13:11:00;;;;;;;4.47;1.50;;;;;;;;;;5138468;27;20047;-71
2023/05/02 13:13:26;;;;;;;5.00;1.30;;;;;;;;;;5142600;27;20039;-72
2023/05/02 13:15:52;;;;;;;5.65;1.40;;;;;;;;;;5156438;27;20045;-72
2023/05/02 13:18:19;;;;;;;3.95;1.35;;;;;;;;;;5156847;27;20157;-72
2023/05/02 13:20:45;;;;;;;4.28;1.38;;;;;;;;;;5123668;27;20054;-70
2023/05/02 13:23:11;;;;;;;4.45;1.58;;;;;;;;;;5131904;27;20227;-75
2023/05/02 13:25:37;;;;;;;6.00;1.55;;;;;;;;;;5118147;27;20752;-72
2023/05/02 13:28:05;;;;;;;4.53;1.50;;;;;;;;;;5156380;27;20118;-74
2023/05/02 13:30:31;;;;;;;5.68;1.50;;;;;;;;;;5138499;27;20100;-74
2023/05/02 13:32:57;;;;;;;4.93;1.40;;;;;;;;;;5138535;27;20428;-75
2023/05/02 13:35:24;;;;;;;6.32;1.40;;;;;;;;;;5128675;27;20059;-75
2023/05/02 13:37:53;;;;;;;6.55;1.33;;;;;;;;;;5136285;27;20043;-76
2023/05/02 13:40:19;;;;;;;4.15;1.30;;;;;;;;;;5138064;27;20126;-75
2023/05/02 13:42:45;;;;;;;4.22;1.60;;;;;;;;;;5123516;27;20372;-75
2023/05/02 13:45:11;;;;;;;5.68;1.30;;;;;;;;;;5117156;27;20038;-75
2023/05/02 13:47:37;;;;;;;4.72;1.23;;;;;;;;;;5135584;27;20476;-75
2023/05/02 13:50:04;;;;;;;3.30;0.98;;;;;;;;;;5135675;27;20034;-76
2023/05/02 13:52:30;;;;;;;4.15;1.20;;;;;;;;;;5145976;27;20514;-72
2023/05/02 13:54:56;;;;;;;6.68;1.63;;;;;;;;;;5152860;27;20490;-71
2023/05/02 13:57:22;;;;;;;3.78;1.50;;;;;;;;;;5156453;27;20395;-71
2023/05/02 13:59:48;;;;;;;7.68;1.38;;;;;;;;;;5155901;27;20551;-75
2023/05/02 14:02:14;;;;;;;6.18;1.55;;;;;;;;;;5137335;27;20039;-76
2023/05/02 14:04:40;;;;;;;4.78;1.25;;;;;;;;;;5138102;27;20475;-71
2023/05/02 14:07:06;;;;;;;7.13;1.40;;;;;;;;;;5156078;27;20486;-73
2023/05/02 14:09:32;;;;;;;8.00;1.30;;;;;;;;;;5137371;27;20114;-73
2023/05/02 14:11:58;;;;;;;5.82;1.55;;;;;;;;;;5137251;27;20559;-72
2023/05/02 14:14:24;;;;;;;4.43;1.50;;;;;;;;;;5137633;27;20043;-73
2023/05/02 14:16:50;;;;;;;5.13;1.48;;;;;;;;;;5119541;27;20039;-71
2023/05/02 14:19:17;;;;;;;7.07;1.50;;;;;;;;;;5155588;27;20031;-72
2023/05/02 14:21:43;;;;;;;4.85;1.20;;;;;;;;;;5136940;27;20069;-76
2023/05/02 14:24:11;;;;;;;4.80;1.00;;;;;;;;;;5131365;27;20040;-71
2023/05/02 14:26:37;;;;;;;4.43;1.25;;;;;;;;;;5128865;27;20039;-72
2023/05/02 14:29:03;;;;;;;7.07;1.30;;;;;;;;;;5119859;27;20038;-72
2023/05/02 14:31:29;;;;;;;6.13;1.35;;;;;;;;;;5136510;27;20034;-72
2023/05/02 14:33:55;;;;;;;5.53;1.23;;;;;;;;;;5136962;27;20487;-72
2023/05/02 14:36:22;;;;;;;5.75;1.23;;;;;;;;;;5152858;27;20051;-72
2023/05/02 14:38:48;;;;;;;5.47;1.08;;;;;;;;;;5134664;27;20113;-75
2023/05/02 14:41:14;;;;;;;3.63;0.95;;;;;;;;;;5130755;27;20118;-75